Time;durP1;ratioP1;P1;durP2;ratioP2;P2;SDS_P1;SDS_P2;PMS_P1;PMS_P2;Temp;Humidity;BMP_temperature;BMP_pressure;BME280_temperature;BME280_humidity;BME280_pressure;Samples;Min_cycle;Max_cycle;Signal;HPM_P1;HPM_P2
2023/05/16 00:01:57;;;;;;;9.53;8.63;;;14.70;1.00;;;;;;5106301;28;20445;-81
2023/05/16 00:04:25;;;;;;;9.93;8.93;;;14.70;99.90;;;;;;5108862;28;20445;-81
2023/05/16 00:06:53;;;;;;;11.90;10.00;;;14.70;25.50;;;;;;5114678;28;20523;-81
2023/05/16 00:09:20;;;;;;;10.17;9.00;;;14.80;1.00;;;;;;5115869;28;20487;-82
2023/05/16 00:11:49;;;;;;;10.73;9.73;;;14.70;1.00;;;;;;5109795;28;20546;-82
2023/05/16 00:14:15;;;;;;;10.87;9.87;;;14.80;1.00;;;;;;5106861;28;20547;-82
2023/05/16 00:16:42;;;;;;;9.93;9.03;;;14.90;99.90;;;;;;5109362;28;20520;-81
2023/05/16 00:19:09;;;;;;;12.00;10.90;;;14.90;99.90;;;;;;5108268;28;20444;-82
2023/05/16 00:21:36;;;;;;;11.03;9.27;;;14.90;99.90;;;;;;5102819;28;20498;-82
2023/05/16 00:24:05;;;;;;;9.80;9.00;;;14.90;65.00;;;;;;5109343;28;20444;-82
2023/05/16 00:26:32;;;;;;;11.10;9.90;;;14.90;6.50;;;;;;5102027;28;20448;-82
2023/05/16 00:28:59;;;;;;;10.23;9.23;;;14.80;1.00;;;;;;5098828;28;20483;-82
2023/05/16 00:31:26;;;;;;;11.13;10.13;;;14.70;99.90;;;;;;5097739;28;20531;-82
2023/05/16 00:33:53;;;;;;;12.40;10.37;;;14.70;12.30;;;;;;5105024;28;20511;-82
2023/05/16 00:36:20;;;;;;;11.10;10.10;;;14.70;99.90;;;;;;5106681;28;20449;-82
2023/05/16 00:38:47;;;;;;;11.70;10.47;;;14.70;99.90;;;;;;5098872;28;20951;-82
2023/05/16 00:41:16;;;;;;;11.87;10.73;;;14.60;45.90;;;;;;5097852;28;20466;-82
2023/05/16 00:43:43;;;;;;;15.00;10.63;;;14.70;1.00;;;;;;5098550;28;20445;-81
2023/05/16 00:46:10;;;;;;;11.50;10.40;;;14.50;99.90;;;;;;5115091;28;20436;-81
2023/05/16 00:48:37;;;;;;;12.20;11.10;;;14.60;1.00;;;;;;5114205;28;20439;-82
2023/05/16 00:51:08;;;;;;;12.37;11.27;;;14.60;99.90;;;;;;5098135;28;20499;-82
2023/05/16 00:53:36;;;;;;;14.20;10.80;;;14.60;1.00;;;;;;5097260;28;20494;-82
2023/05/16 00:56:03;;;;;;;13.57;12.27;;;14.60;1.00;;;;;;5097934;28;20864;-82
2023/05/16 00:58:32;;;;;;;13.80;12.50;;;14.50;1.00;;;;;;5100863;28;20535;-82
2023/05/16 01:01:00;;;;;;;14.33;12.80;;;14.40;1.00;;;;;;5104243;28;20476;-82
2023/05/16 01:03:28;;;;;;;16.30;12.40;;;14.40;99.90;;;;;;5107161;28;20511;-81
2023/05/16 01:05:55;;;;;;;17.70;13.90;;;14.30;1.00;;;;;;5107912;28;20432;-81
2023/05/16 01:08:21;;;;;;;14.37;12.97;;;14.30;1.00;;;;;;5105342;28;20520;-83
2023/05/16 01:10:59;;;;;;;14.80;13.30;;;14.30;1.00;;;;;;5108642;28;20922;-83
2023/05/16 01:13:36;;;;;;;14.20;12.90;;;14.30;99.90;;;;;;5103500;28;20472;-81
2023/05/16 01:16:13;;;;;;;14.87;13.20;;;14.20;1.00;;;;;;5103116;28;20466;-82
2023/05/16 01:18:45;;;;;;;20.20;14.17;;;14.40;1.00;;;;;;5101559;28;20428;-83
2023/05/16 01:21:16;;;;;;;15.80;14.23;;;14.00;99.90;;;;;;5100106;28;20472;-83
2023/05/16 01:23:51;;;;;;;15.30;13.70;;;14.00;1.00;;;;;;5101516;28;20443;-81
2023/05/16 01:26:22;;;;;;;20.70;16.63;;;14.00;99.90;;;;;;5101223;28;20862;-82
2023/05/16 01:28:51;;;;;;;19.20;14.33;;;14.00;1.00;;;;;;5101034;28;20531;-83
2023/05/16 01:31:18;;;;;;;18.30;15.40;;;14.00;99.90;;;;;;5100640;28;20490;-82
2023/05/16 01:33:45;;;;;;;18.73;16.73;;;13.90;99.90;;;;;;5100785;28;20539;-81
2023/05/16 01:36:21;;;;;;;21.87;16.13;;;13.90;1.00;;;;;;5100531;28;20455;-83
2023/05/16 01:39:02;;;;;;;22.83;16.53;;;13.80;1.00;;;;;;5101973;28;20444;-81
2023/05/16 01:41:40;;;;;;;20.57;16.50;;;13.60;1.00;;;;;;5110828;28;20546;-82
2023/05/16 01:44:16;;;;;;;17.23;15.40;;;13.30;99.90;;;;;;5101014;28;20428;-82
2023/05/16 01:46:45;;;;;;;20.93;18.37;;;13.50;14.00;;;;;;5100053;28;20477;-83
2023/05/16 01:49:16;;;;;;;17.63;15.73;;;13.60;99.90;;;;;;5099860;28;20432;-82
2023/05/16 01:51:50;;;;;;;18.10;14.80;;;13.50;90.50;;;;;;5100225;28;20675;-82
2023/05/16 01:54:19;;;;;;;17.93;15.57;;;13.40;1.00;;;;;;5100772;28;20811;-82
2023/05/16 01:56:52;;;;;;;15.50;13.80;;;13.40;1.00;;;;;;5103248;28;20451;-81
2023/05/16 01:59:21;;;;;;;19.33;15.50;;;13.40;99.90;;;;;;5102735;28;20432;-82
2023/05/16 02:01:48;;;;;;;21.73;13.90;;;13.00;99.90;;;;;;5101319;28;20459;-82
2023/05/16 02:04:15;;;;;;;17.10;15.30;;;13.30;99.90;;;;;;5101419;28;20939;-82
2023/05/16 02:06:42;;;;;;;15.87;13.83;;;13.30;1.00;;;;;;5101250;28;20815;-83
2023/05/16 02:09:09;;;;;;;15.87;14.27;;;13.20;99.90;;;;;;5100524;28;20444;-83
2023/05/16 02:11:36;;;;;;;16.00;14.30;;;13.10;99.90;;;;;;5102306;28;20488;-83
2023/05/16 02:14:04;;;;;;;16.77;15.00;;;13.10;99.90;;;;;;5101545;28;20526;-82
2023/05/16 02:16:31;;;;;;;16.17;14.47;;;13.10;99.90;;;;;;5103294;28;20566;-82
2023/05/16 02:18:58;;;;;;;21.17;14.17;;;13.00;1.00;;;;;;5106401;28;20456;-82
2023/05/16 02:21:25;;;;;;;17.80;14.00;;;12.80;1.00;;;;;;5104655;28;20443;-83
2023/05/16 02:23:52;;;;;;;17.43;14.13;;;12.80;99.90;;;;;;5106060;28;20440;-83
2023/05/16 02:26:19;;;;;;;16.33;14.50;;;12.90;99.90;;;;;;5106711;28;20440;-82
2023/05/16 02:28:47;;;;;;;16.53;13.57;;;12.70;99.90;;;;;;5106275;28;20471;-83
2023/05/16 02:31:26;;;;;;;16.20;14.47;;;12.90;1.00;;;;;;5105064;28;20557;-82
2023/05/16 02:33:53;;;;;;;21.13;15.17;;;12.50;1.00;;;;;;5107503;28;20781;-82
2023/05/16 02:36:20;;;;;;;22.43;14.33;;;12.30;99.90;;;;;;5108464;28;20475;-81
2023/05/16 02:38:46;;;;;;;17.03;14.43;;;12.50;99.90;;;;;;5106796;28;20429;-83
2023/05/16 02:41:13;;;;;;;17.47;14.23;;;12.40;1.00;;;;;;5104001;28;20456;-82
2023/05/16 02:43:40;;;;;;;17.60;15.63;;;12.50;99.90;;;;;;5115091;28;20513;-82
2023/05/16 02:46:22;;;;;;;21.63;14.60;;;12.50;99.90;;;;;;5110657;28;20540;-82
2023/05/16 02:48:49;;;;;;;20.70;16.23;;;12.60;1.00;;;;;;5111929;28;20512;-82
2023/05/16 02:51:15;;;;;;;18.03;15.90;;;12.40;1.00;;;;;;5100434;28;20484;-83
2023/05/16 02:53:42;;;;;;;19.77;14.50;;;12.40;1.00;;;;;;5099556;28;20454;-83
2023/05/16 02:56:09;;;;;;;20.40;15.00;;;12.50;1.00;;;;;;5099483;28;20450;-83
2023/05/16 02:58:36;;;;;;;16.87;13.40;;;12.50;60.90;;;;;;5098574;28;21049;-82
2023/05/16 03:01:03;;;;;;;16.73;14.57;;;12.50;1.00;;;;;;5099279;28;20439;-85
2023/05/16 03:03:32;;;;;;;16.23;14.53;;;12.40;99.90;;;;;;5099396;28;20452;-82
2023/05/16 03:05:59;;;;;;;25.47;14.80;;;12.40;4.90;;;;;;5099776;28;20440;-83
2023/05/16 03:08:26;;;;;;;20.67;16.20;;;12.70;1.00;;;;;;5099644;28;20497;-83
2023/05/16 03:10:53;;;;;;;22.20;19.07;;;12.50;99.90;;;;;;5098033;28;20467;-82
2023/05/16 03:13:19;;;;;;;18.20;15.73;;;12.50;99.90;;;;;;5097795;28;20951;-82
2023/05/16 03:15:46;;;;;;;15.53;13.80;;;12.50;99.90;;;;;;5097970;28;20539;-83
2023/05/16 03:18:13;;;;;;;16.90;15.10;;;12.20;26.60;;;;;;5098017;28;20422;-83
2023/05/16 03:20:41;;;;;;;18.43;14.63;;;12.40;1.00;;;;;;5126453;22;20512;-86
2023/05/16 03:23:08;;;;;;;17.40;15.70;;;;;;;;;;5103497;28;20437;-86
2023/05/16 03:25:37;;;;;;;17.60;14.50;;;12.40;99.90;;;;;;5100314;28;20450;-85
2023/05/16 03:28:06;;;;;;;19.00;16.40;;;12.40;99.90;;;;;;5100848;28;20436;-86
2023/05/16 03:30:33;;;;;;;18.70;15.03;;;12.40;99.90;;;;;;5105560;28;20981;-85
2023/05/16 03:33:00;;;;;;;21.20;16.93;;;12.40;99.90;;;;;;5098407;28;20490;-85
2023/05/16 03:35:27;;;;;;;20.60;15.80;;;12.40;1.00;;;;;;5101416;28;20444;-85
2023/05/16 03:37:56;;;;;;;18.03;16.10;;;12.40;99.90;;;;;;5105043;28;20452;-86
2023/05/16 03:40:22;;;;;;;19.40;16.23;;;12.30;99.90;;;;;;5103145;28;20546;-86
2023/05/16 03:42:49;;;;;;;22.93;16.90;;;12.20;1.00;;;;;;5112940;28;20441;-84
2023/05/16 03:45:16;;;;;;;19.37;15.87;;;12.20;99.90;;;;;;5114219;28;20440;-85
2023/05/16 03:47:43;;;;;;;20.70;15.80;;;12.20;1.00;;;;;;5114727;28;20468;-85
2023/05/16 03:50:10;;;;;;;18.77;15.27;;;12.20;1.00;;;;;;5108757;28;20551;-86
2023/05/16 03:52:37;;;;;;;21.53;16.40;;;12.20;1.00;;;;;;5106841;28;20567;-87
2023/05/16 03:55:07;;;;;;;23.30;17.77;;;12.20;99.90;;;;;;5103937;28;20455;-86
2023/05/16 03:57:34;;;;;;;21.73;16.77;;;12.20;99.90;;;;;;5105462;28;20468;-86
2023/05/16 04:00:05;;;;;;;21.90;17.30;;;11.90;1.00;;;;;;5104580;28;20445;-85
2023/05/16 04:02:34;;;;;;;19.90;17.00;;;12.10;1.00;;;;;;5100592;28;20436;-86
2023/05/16 04:05:00;;;;;;;21.00;16.17;;;12.20;1.00;;;;;;5099532;28;20467;-85
2023/05/16 04:07:27;;;;;;;19.73;16.83;;;12.00;99.90;;;;;;5114027;28;20444;-83
2023/05/16 04:09:55;;;;;;;24.47;18.67;;;11.70;1.00;;;;;;5117215;28;20475;-85
2023/05/16 04:12:23;;;;;;;25.80;18.67;;;11.90;99.90;;;;;;5117045;28;20473;-84
2023/05/16 04:14:50;;;;;;;23.10;19.13;;;12.00;99.90;;;;;;5100467;28;20502;-88
2023/05/16 04:17:16;;;;;;;23.00;18.57;;;11.70;1.00;;;;;;5100381;28;20774;-87
2023/05/16 04:19:44;;;;;;;23.63;19.33;;;11.70;99.90;;;;;;5099134;28;20443;-87
2023/05/16 04:22:11;;;;;;;22.73;19.70;;;11.80;99.90;;;;;;5103368;28;20519;-85
2023/05/16 04:24:37;;;;;;;25.07;18.60;;;11.90;1.00;;;;;;5100754;28;20452;-85
2023/05/16 04:27:07;;;;;;;25.13;18.73;;;11.80;1.00;;;;;;5103324;28;20543;-84
2023/05/16 04:29:36;;;;;;;21.60;16.80;;;11.80;1.00;;;;;;5103815;28;20440;-85
2023/05/16 04:32:03;;;;;;;18.20;16.20;;;11.80;99.90;;;;;;5105882;28;20553;-85
2023/05/16 04:34:30;;;;;;;20.00;16.97;;;;;;;;;;5099990;28;20971;-85
2023/05/16 04:36:57;;;;;;;22.50;16.50;;;11.80;1.00;;;;;;5099860;28;20447;-85
2023/05/16 04:39:24;;;;;;;25.33;16.90;;;11.80;1.00;;;;;;5098855;28;21034;-86
2023/05/16 04:41:50;;;;;;;19.83;16.43;;;11.80;74.30;;;;;;5098950;28;20488;-85
2023/05/16 04:44:17;;;;;;;25.47;17.43;;;11.70;1.00;;;;;;5105048;28;20444;-84
2023/05/16 04:46:47;;;;;;;20.60;16.43;;;11.50;1.00;;;;;;5103561;28;20452;-85
2023/05/16 04:49:14;;;;;;;22.30;16.70;;;11.60;1.00;;;;;;5103285;28;20444;-87
2023/05/16 04:51:41;;;;;;;22.03;17.03;;;11.60;99.90;;;;;;5103808;28;20458;-86
2023/05/16 04:54:09;;;;;;;20.20;15.63;;;11.70;99.90;;;;;;5104039;28;20911;-85
2023/05/16 04:56:36;;;;;;;17.70;14.90;;;11.70;1.00;;;;;;5103776;28;20448;-86
2023/05/16 04:59:03;;;;;;;23.00;16.87;;;11.70;1.00;;;;;;5103684;28;20452;-85
2023/05/16 05:01:30;;;;;;;21.97;15.67;;;11.60;1.00;;;;;;5106778;28;20472;-86
2023/05/16 05:03:58;;;;;;;23.13;15.73;;;11.60;1.00;;;;;;5104343;28;20432;-85
2023/05/16 05:06:25;;;;;;;20.70;15.53;;;11.50;1.00;;;;;;5103979;28;20454;-85
2023/05/16 05:08:53;;;;;;;25.23;19.03;;;11.50;1.00;;;;;;5104600;28;20451;-86
2023/05/16 05:11:22;;;;;;;23.00;17.03;;;11.50;10.50;;;;;;5106532;28;20438;-85
2023/05/16 05:13:49;;;;;;;21.40;16.60;;;11.50;8.20;;;;;;5114052;28;20891;-85
2023/05/16 05:16:15;;;;;;;24.37;16.80;;;11.50;79.30;;;;;;5116662;28;20464;-84
2023/05/16 05:18:43;;;;;;;23.17;16.70;;;;;;;;;;5117490;28;20446;-84
2023/05/16 05:21:11;;;;;;;21.73;16.13;;;11.50;1.00;;;;;;5117787;28;20502;-84
2023/05/16 05:23:38;;;;;;;22.67;17.70;;;11.40;99.90;;;;;;5120670;28;20428;-84
2023/05/16 05:26:05;;;;;;;18.70;14.43;;;11.40;1.00;;;;;;5122138;28;20448;-85
2023/05/16 05:28:32;;;;;;;22.93;17.57;;;11.50;1.00;;;;;;5122299;28;20455;-86
2023/05/16 05:30:59;;;;;;;24.13;17.47;;;11.50;1.00;;;;;;5121933;28;20498;-84
2023/05/16 05:33:28;;;;;;;21.63;15.90;;;11.20;99.90;;;;;;5121132;28;20488;-85
2023/05/16 05:35:55;;;;;;;22.53;16.60;;;11.80;1.00;;;;;;5120907;28;20468;-85
2023/05/16 05:38:23;;;;;;;20.80;16.10;;;11.30;99.90;;;;;;5116563;28;20419;-85
2023/05/16 05:40:50;;;;;;;24.03;16.67;;;11.50;1.00;;;;;;5105364;28;20464;-85
2023/05/16 05:43:18;;;;;;;21.70;15.57;;;11.50;99.90;;;;;;5104235;28;20527;-85
2023/05/16 05:45:45;;;;;;;24.00;17.80;;;11.50;1.00;;;;;;5102420;28;20458;-84
2023/05/16 05:48:12;;;;;;;26.27;17.10;;;11.30;1.00;;;;;;5102704;28;20546;-85
2023/05/16 05:50:39;;;;;;;21.90;15.20;;;11.40;1.00;;;;;;5117551;28;20474;-85
2023/05/16 05:53:06;;;;;;;23.70;17.80;;;11.50;1.00;;;;;;5117751;28;20467;-86
2023/05/16 05:55:35;;;;;;;23.20;16.70;;;11.40;99.90;;;;;;5114129;28;20509;-86
2023/05/16 05:58:04;;;;;;;23.03;16.87;;;11.50;99.90;;;;;;5111496;28;20471;-86
2023/05/16 06:00:31;;;;;;;17.60;15.10;;;11.50;99.90;;;;;;5109767;28;20476;-84
2023/05/16 06:02:58;;;;;;;19.23;13.83;;;11.60;99.90;;;;;;5104601;28;20450;-85
2023/05/16 06:05:25;;;;;;;18.87;14.03;;;11.60;88.80;;;;;;5102504;28;20456;-86
2023/05/16 06:07:52;;;;;;;18.77;13.80;;;11.40;1.00;;;;;;5103199;28;20445;-85
2023/05/16 06:10:19;;;;;;;16.07;13.40;;;11.70;1.00;;;;;;5103120;28;20470;-87
2023/05/16 06:12:47;;;;;;;17.60;13.73;;;11.70;1.00;;;;;;5101949;28;20854;-87
2023/05/16 06:15:14;;;;;;;19.93;12.37;;;11.70;1.00;;;;;;5101080;28;20465;-86
2023/05/16 06:17:41;;;;;;;15.83;12.47;;;11.70;99.90;;;;;;5105432;28;20470;-85
2023/05/16 06:20:09;;;;;;;14.93;13.00;;;11.40;99.90;;;;;;5102766;28;20415;-85
2023/05/16 06:22:36;;;;;;;15.77;12.60;;;11.70;99.90;;;;;;5102296;28;20439;-85
2023/05/16 06:25:03;;;;;;;14.67;12.70;;;11.60;1.00;;;;;;5103340;28;20535;-87
2023/05/16 06:27:30;;;;;;;13.67;11.67;;;11.60;99.90;;;;;;5103743;28;20431;-86
2023/05/16 06:29:58;;;;;;;20.70;12.80;;;11.90;99.90;;;;;;5102693;28;20475;-84
2023/05/16 06:32:25;;;;;;;15.87;12.33;;;11.40;1.00;;;;;;5107464;28;20523;-85
2023/05/16 06:34:52;;;;;;;13.20;11.50;;;11.80;99.90;;;;;;5101275;28;20458;-85
2023/05/16 06:37:19;;;;;;;16.40;12.50;;;11.80;1.00;;;;;;5100568;28;20439;-85
2023/05/16 06:39:46;;;;;;;15.63;12.30;;;11.90;99.90;;;;;;5101420;28;20432;-87
2023/05/16 06:42:13;;;;;;;14.20;12.80;;;11.90;1.00;;;;;;5101830;28;20474;-86
2023/05/16 06:44:40;;;;;;;12.67;11.23;;;11.90;1.00;;;;;;5102757;28;20458;-85
2023/05/16 06:47:08;;;;;;;14.33;12.27;;;11.80;1.00;;;;;;5102889;28;20565;-85
2023/05/16 06:49:35;;;;;;;18.13;11.67;;;12.00;99.90;;;;;;5103200;28;20515;-86
2023/05/16 06:52:02;;;;;;;16.27;12.23;;;11.90;1.00;;;;;;5101802;28;20519;-88
2023/05/16 06:54:29;;;;;;;15.30;11.77;;;12.00;1.00;;;;;;5104727;28;20460;-85
2023/05/16 06:56:56;;;;;;;18.30;11.53;;;12.00;1.00;;;;;;5105241;28;20445;-85
2023/05/16 06:59:23;;;;;;;11.93;10.70;;;12.10;1.00;;;;;;5102485;28;20475;-87
2023/05/16 07:01:50;;;;;;;14.27;10.50;;;12.10;99.90;;;;;;5103129;28;20476;-85
2023/05/16 07:04:19;;;;;;;13.57;9.73;;;12.00;99.90;;;;;;5109839;28;20431;-85
2023/05/16 07:06:46;;;;;;;14.07;10.17;;;12.00;99.90;;;;;;5117986;28;20459;-85
2023/05/16 07:09:13;;;;;;;12.03;10.03;;;12.20;99.90;;;;;;5115322;28;20464;-86
2023/05/16 07:11:41;;;;;;;11.13;9.60;;;12.10;99.90;;;;;;5110163;28;20526;-86
2023/05/16 07:14:08;;;;;;;11.70;8.87;;;12.30;99.90;;;;;;5108386;28;20480;-86
2023/05/16 07:16:35;;;;;;;10.87;9.30;;;12.20;99.90;;;;;;5107733;28;20415;-87
2023/05/16 07:19:02;;;;;;;10.57;8.47;;;12.20;99.90;;;;;;5106305;28;20535;-86
2023/05/16 07:21:31;;;;;;;8.83;7.80;;;12.10;99.90;;;;;;5102753;28;20555;-86
2023/05/16 07:23:58;;;;;;;9.90;8.40;;;12.00;99.90;;;;;;5102439;28;20436;-85
2023/05/16 07:26:25;;;;;;;10.00;9.00;;;11.70;99.90;;;;;;5103992;28;20861;-85
2023/05/16 07:28:55;;;;;;;9.80;7.20;;;12.10;1.00;;;;;;5104224;28;20468;-85
2023/05/16 07:31:22;;;;;;;10.30;8.20;;;12.20;99.90;;;;;;5105826;28;20453;-85
2023/05/16 07:33:50;;;;;;;9.20;7.73;;;12.30;99.90;;;;;;5102617;28;20483;-85
2023/05/16 07:36:17;;;;;;;9.90;6.60;;;12.30;73.50;;;;;;5101394;28;20552;-85
2023/05/16 07:38:48;;;;;;;10.50;7.37;;;11.90;1.00;;;;;;5101017;28;20458;-86
2023/05/16 07:41:15;;;;;;;10.50;7.53;;;11.90;99.90;;;;;;5102296;28;20453;-85
2023/05/16 07:43:42;;;;;;;10.67;8.30;;;12.10;15.50;;;;;;5102153;28;20816;-84
2023/05/16 07:46:09;;;;;;;10.60;9.17;;;12.40;72.60;;;;;;5102708;28;20452;-85
2023/05/16 07:48:36;;;;;;;11.47;7.93;;;12.50;27.50;;;;;;5101356;28;20523;-85
2023/05/16 07:51:03;;;;;;;10.53;8.07;;;12.50;19.60;;;;;;5102368;28;20518;-86
2023/05/16 07:53:30;;;;;;;8.17;7.07;;;12.60;1.00;;;;;;5106464;28;20480;-86
2023/05/16 07:56:07;;;;;;;10.47;7.70;;;12.40;99.90;;;;;;5107441;28;20430;-86
2023/05/16 07:58:38;;;;;;;7.80;7.10;;;12.60;1.00;;;;;;5104571;28;20535;-85
2023/05/16 08:03:46;;;;;;;12.63;7.13;;;;;;;;;;5100673;28;20975;-85
2023/05/16 08:06:16;;;;;;;10.67;6.67;;;;;;;;;;5100947;28;20448;-85
2023/05/16 08:08:48;;;;;;;5.53;4.80;;;14.20;1.00;;;;;;5101037;28;20969;-85
2023/05/16 08:11:16;;;;;;;8.33;5.90;;;12.10;95.40;;;;;;5100877;28;20498;-85
2023/05/16 08:13:43;;;;;;;4.43;4.00;;;12.10;99.90;;;;;;5100824;28;20563;-85
2023/05/16 08:16:11;;;;;;;6.70;4.90;;;12.20;1.00;;;;;;5106741;28;20429;-84
2023/05/16 08:18:38;;;;;;;4.83;4.43;;;;;;;;;;5106735;28;20445;-86
2023/05/16 08:21:12;;;;;;;7.63;5.00;;;11.90;99.90;;;;;;5107387;28;20514;-86
2023/05/16 08:23:50;;;;;;;5.57;5.07;;;12.10;93.50;;;;;;5100253;28;20427;-86
2023/05/16 08:26:22;;;;;;;6.00;4.43;;;12.30;99.90;;;;;;5101394;28;20795;-85
2023/05/16 08:28:49;;;;;;;8.73;5.80;;;;;;;;;;5101454;28;20479;-86
2023/05/16 08:31:16;;;;;;;6.63;5.93;;;;;;;;;;5100028;28;21049;-86
2023/05/16 08:33:43;;;;;;;8.73;7.10;;;11.80;1.00;;;;;;5100880;28;20486;-85
2023/05/16 08:36:10;;;;;;;8.40;6.43;;;11.80;99.90;;;;;;5101264;28;20459;-87
2023/05/16 08:38:40;;;;;;;9.43;6.00;;;12.00;53.60;;;;;;5100848;28;20950;-85
2023/05/16 08:41:14;;;;;;;6.33;5.10;;;12.00;1.00;;;;;;5102050;28;20447;-85
2023/05/16 08:43:42;;;;;;;5.53;5.07;;;11.70;17.80;;;;;;5101493;28;20425;-86
2023/05/16 08:46:10;;;;;;;7.17;5.30;;;;;;;;;;5103869;28;20448;-85
2023/05/16 08:48:42;;;;;;;8.50;5.57;;;12.00;1.00;;;;;;5108754;28;20472;-86
2023/05/16 08:51:18;;;;;;;7.33;4.40;;;12.20;99.90;;;;;;5111426;28;20468;-85
2023/05/16 08:53:54;;;;;;;5.40;4.90;;;12.10;1.00;;;;;;5118222;28;20460;-84
2023/05/16 08:56:23;;;;;;;8.67;3.73;;;10.50;1.00;;;;;;5118254;28;20476;-85
2023/05/16 08:58:54;;;;;;;4.97;3.60;;;12.10;1.00;;;;;;5118715;28;20427;-84
2023/05/16 09:01:22;;;;;;;4.90;3.90;;;12.10;1.00;;;;;;5118464;28;20534;-86
2023/05/16 09:03:50;;;;;;;6.80;4.30;;;12.20;1.00;;;;;;5118117;28;20453;-86
2023/05/16 09:06:17;;;;;;;4.60;3.63;;;12.30;1.00;;;;;;5117151;28;20437;-87
2023/05/16 09:08:46;;;;;;;4.20;3.57;;;12.40;99.90;;;;;;5117356;28;20456;-86
2023/05/16 09:11:13;;;;;;;7.20;4.17;;;12.40;1.00;;;;;;5111669;28;20468;-86
2023/05/16 09:13:40;;;;;;;7.73;5.17;;;12.40;1.00;;;;;;5110458;28;20486;-87
2023/05/16 09:16:14;;;;;;;8.03;4.60;;;12.60;16.60;;;;;;5108426;28;20444;-85
2023/05/16 09:18:43;;;;;;;5.27;4.10;;;12.60;1.00;;;;;;5112379;28;20441;-86
2023/05/16 09:21:11;;;;;;;3.53;3.23;;;12.50;1.00;;;;;;5114234;22;20480;-79
2023/05/16 09:23:38;;;;;;;4.30;3.90;;;12.60;1.00;;;;;;5096188;28;20439;-78
2023/05/16 09:26:06;;;;;;;4.07;3.37;;;12.60;1.00;;;;;;5096372;28;20521;-79
2023/05/16 09:28:34;;;;;;;3.10;2.90;;;12.50;1.00;;;;;;5096229;28;20448;-80
2023/05/16 09:31:01;;;;;;;3.57;3.23;;;12.50;1.00;;;;;;5098084;28;20480;-79
2023/05/16 09:33:30;;;;;;;3.37;2.80;;;13.30;25.10;;;;;;5101164;28;20484;-79
2023/05/16 09:35:59;;;;;;;6.10;3.50;;;12.50;1.00;;;;;;5101160;28;20426;-78
2023/05/16 09:38:27;;;;;;;3.30;3.03;;;12.50;1.00;;;;;;5099498;28;20447;-78
2023/05/16 09:40:54;;;;;;;3.20;2.90;;;12.60;1.00;;;;;;5100191;28;20472;-78
2023/05/16 09:43:25;;;;;;;4.87;3.30;;;12.60;1.00;;;;;;5099674;28;20543;-78
2023/05/16 09:45:53;;;;;;;3.43;2.63;;;12.70;1.00;;;;;;5100442;28;20519;-79
2023/05/16 09:48:22;;;;;;;4.57;3.40;;;12.70;1.00;;;;;;5100360;28;20448;-79
2023/05/16 09:50:52;;;;;;;5.10;3.37;;;12.70;1.00;;;;;;5100104;28;20460;-79
2023/05/16 09:53:26;;;;;;;5.90;3.67;;;12.80;1.00;;;;;;5099751;28;20515;-78
2023/05/16 09:56:01;;;;;;;3.50;3.20;;;12.80;1.00;;;;;;5101932;28;20795;-78
2023/05/16 09:58:33;;;;;;;7.50;3.13;;;13.10;1.00;;;;;;5102089;28;20425;-79
2023/05/16 10:01:01;;;;;;;3.40;3.10;;;12.70;1.00;;;;;;5102732;28;20456;-77
2023/05/16 10:03:29;;;;;;;3.37;2.90;;;12.50;1.00;;;;;;5096057;28;20440;-77
2023/05/16 10:05:57;;;;;;;3.00;2.70;;;12.20;1.00;;;;;;5098164;28;20966;-78
2023/05/16 10:08:28;;;;;;;4.03;3.60;;;12.20;1.00;;;;;;5098922;28;20936;-79
2023/05/16 10:10:56;;;;;;;7.27;3.23;;;12.30;1.00;;;;;;5101790;28;20472;-79
2023/05/16 10:13:31;;;;;;;5.90;4.30;;;12.50;1.00;;;;;;5101109;28;20472;-79
2023/05/16 10:16:01;;;;;;;6.13;3.70;;;12.60;1.00;;;;;;5102251;28;20434;-78
2023/05/16 10:18:30;;;;;;;4.27;3.60;;;12.60;1.00;;;;;;5101103;28;20455;-78
2023/05/16 10:21:04;;;;;;;4.90;4.20;;;12.70;1.00;;;;;;5107869;28;20514;-78
2023/05/16 10:23:32;;;;;;;12.10;4.03;;;12.70;1.00;;;;;;5111102;28;20489;-78
2023/05/16 10:26:03;;;;;;;7.43;3.93;;;12.60;1.00;;;;;;5107002;28;20477;-79
2023/05/16 10:28:31;;;;;;;19.93;5.90;;;12.40;1.00;;;;;;5102234;28;20515;-80
2023/05/16 10:30:59;;;;;;;7.90;4.37;;;12.30;1.00;;;;;;5099890;28;20497;-79
2023/05/16 10:33:26;;;;;;;5.63;3.70;;;12.30;1.00;;;;;;5096582;28;20579;-79
2023/05/16 10:35:53;;;;;;;5.43;3.97;;;12.30;1.00;;;;;;5096900;28;21001;-78
2023/05/16 10:38:23;;;;;;;6.97;5.13;;;12.30;1.00;;;;;;5097549;28;20895;-79
2023/05/16 10:40:51;;;;;;;8.70;4.80;;;12.50;1.00;;;;;;5096576;28;20465;-78
2023/05/16 10:43:26;;;;;;;9.40;4.73;;;12.40;1.00;;;;;;5097641;28;20448;-78
2023/05/16 10:45:57;;;;;;;7.47;3.90;;;12.80;1.00;;;;;;5097259;28;20501;-78
2023/05/16 10:48:31;;;;;;;5.93;4.07;;;12.90;1.00;;;;;;5097360;28;20444;-79
2023/05/16 10:50:58;;;;;;;9.93;4.10;;;13.10;1.00;;;;;;5097685;28;20839;-78
2023/05/16 10:53:32;;;;;;;5.20;3.90;;;13.10;1.00;;;;;;5098711;28;20484;-79
2023/05/16 10:56:08;;;;;;;7.90;3.80;;;13.00;1.00;;;;;;5100158;28;20515;-78
2023/05/16 10:58:47;;;;;;;5.47;4.47;;;12.80;1.00;;;;;;5098760;28;20437;-79
2023/05/16 11:01:32;;;;;;;7.40;4.30;;;12.80;55.10;;;;;;5096386;28;20511;-77
2023/05/16 11:04:09;;;;;;;10.63;5.40;;;12.70;1.00;;;;;;5096558;28;20399;-79
2023/05/16 11:06:50;;;;;;;4.63;3.43;;;12.70;1.00;;;;;;5096551;28;20520;-78
2023/05/16 11:09:27;;;;;;;12.30;5.10;;;12.30;1.00;;;;;;5096926;28;20429;-77
2023/05/16 11:12:05;;;;;;;4.90;3.80;;;12.30;1.00;;;;;;5096247;28;20553;-80
2023/05/16 11:14:38;;;;;;;9.47;4.47;;;12.20;1.00;;;;;;5097026;28;20464;-78
2023/05/16 11:17:09;;;;;;;12.60;4.47;;;12.30;1.00;;;;;;5100289;28;20532;-79
2023/05/16 11:19:40;;;;;;;8.90;3.60;;;12.30;1.00;;;;;;5109236;28;20440;-79
2023/05/16 11:22:14;;;;;;;7.90;3.90;;;12.20;1.00;;;;;;5098964;28;20447;-78
2023/05/16 11:24:50;;;;;;;4.73;3.40;;;12.40;1.00;;;;;;5107565;28;20424;-78
2023/05/16 11:27:23;;;;;;;6.50;3.73;;;12.60;1.00;;;;;;5104070;28;20435;-79
2023/05/16 11:29:50;;;;;;;11.40;3.43;;;12.50;1.00;;;;;;5098769;28;20433;-80
2023/05/16 11:32:21;;;;;;;7.67;3.57;;;12.70;1.00;;;;;;5096252;28;20477;-79
2023/05/16 11:34:48;;;;;;;8.63;3.13;;;12.90;1.00;;;;;;5097294;28;20985;-78
2023/05/16 11:37:16;;;;;;;5.23;3.60;;;12.70;1.00;;;;;;5108283;28;20468;-79
2023/05/16 11:39:44;;;;;;;9.23;4.03;;;12.70;1.00;;;;;;5109197;28;20444;-79
2023/05/16 11:42:12;;;;;;;8.87;3.10;;;12.90;1.00;;;;;;5111655;28;20555;-79
2023/05/16 11:44:39;;;;;;;4.00;2.37;;;13.00;1.00;;;;;;5111981;28;20538;-79
2023/05/16 11:47:06;;;;;;;12.33;4.20;;;13.00;1.00;;;;;;5109895;28;20444;-78
2023/05/16 11:49:34;;;;;;;6.17;4.37;;;13.00;1.00;;;;;;5109549;28;20448;-78
2023/05/16 11:52:01;;;;;;;3.07;2.80;;;13.00;1.00;;;;;;5107534;28;20483;-78
2023/05/16 11:54:28;;;;;;;11.23;4.30;;;13.00;99.90;;;;;;5097316;28;20476;-79
2023/05/16 11:56:57;;;;;;;5.63;3.33;;;13.00;99.90;;;;;;5100944;28;20440;-79
2023/05/16 11:59:23;;;;;;;7.90;3.17;;;13.00;1.00;;;;;;5103352;28;20565;-79
2023/05/16 12:01:50;;;;;;;8.83;3.60;;;13.20;99.90;;;;;;5101659;28;20479;-78
2023/05/16 12:04:19;;;;;;;9.53;3.60;;;13.30;99.90;;;;;;5100359;28;20496;-78
2023/05/16 12:06:59;;;;;;;5.53;3.13;;;13.50;99.90;;;;;;5099205;28;20872;-78
2023/05/16 12:09:26;;;;;;;9.53;3.30;;;13.80;99.90;;;;;;5097175;28;20439;-78
2023/05/16 12:11:53;;;;;;;5.50;3.23;;;13.80;99.90;;;;;;5096283;28;20637;-80
2023/05/16 12:14:22;;;;;;;8.63;3.20;;;13.90;99.90;;;;;;5096637;28;20484;-78
2023/05/16 12:16:49;;;;;;;6.80;2.60;;;14.00;99.90;;;;;;5098622;28;20535;-78
2023/05/16 12:19:16;;;;;;;5.40;2.70;;;13.90;99.90;;;;;;5104067;28;20962;-78
2023/05/16 12:21:43;;;;;;;6.33;3.17;;;13.80;99.90;;;;;;5107000;28;20476;-79
2023/05/16 12:24:11;;;;;;;6.07;3.33;;;13.80;99.90;;;;;;5107740;28;20932;-78
2023/05/16 12:26:41;;;;;;;13.27;3.30;;;13.90;99.90;;;;;;5106610;28;20459;-80
2023/05/16 12:29:10;;;;;;;6.37;2.80;;;14.00;99.90;;;;;;5100755;28;20440;-78
2023/05/16 12:31:40;;;;;;;8.10;4.00;;;13.90;99.90;;;;;;5098461;28;20475;-78
2023/05/16 12:34:16;;;;;;;9.30;2.83;;;13.60;99.90;;;;;;5101104;28;20873;-79
2023/05/16 12:36:44;;;;;;;7.37;2.77;;;13.70;99.90;;;;;;5105807;28;20515;-78
2023/05/16 12:39:12;;;;;;;7.00;2.43;;;13.80;99.90;;;;;;5103930;28;20430;-78
2023/05/16 12:41:41;;;;;;;5.40;2.87;;;13.80;99.90;;;;;;5099270;28;20461;-79
2023/05/16 12:44:13;;;;;;;5.27;3.13;;;13.90;99.90;;;;;;5095885;28;20966;-79
2023/05/16 12:46:45;;;;;;;4.60;2.93;;;13.80;1.00;;;;;;5095784;28;20810;-77
2023/05/16 12:49:13;;;;;;;6.33;2.63;;;13.90;99.90;;;;;;5095836;28;20830;-79
2023/05/16 12:51:40;;;;;;;4.40;2.63;;;14.00;1.00;;;;;;5095388;28;20468;-77
2023/05/16 12:54:10;;;;;;;6.73;3.50;;;13.80;99.90;;;;;;5097049;28;20554;-79